White, Minnesota
Current Conditions -  °F | °C
As of 2:12 AM on Thursday 29 Jan 2015 (Local Time) from KEVM Reporting Station
Overcast Overcast  
Wind Chill: 19°   Ceiling: 1000
Heat Index: 30°   Visibility: 10mi
Dew Point: 28°   Wind: 15mph
Humidity: 93%   Direction: 350°N
Pressure: 29.87"   Gusts: 21mph
Location:  47.4622°N, 92.1946°W
Report Text: KEVM 290812Z AUTO 35013G18KT 10SM OVC010 M01/M02 A2987 RMK AO2
Loading
Personal Weather Stations






























Interactive Weather Map New forecast layout! Learn more

10-Day Weather Forecast

Advertisements
Track Severe Weather on mobile